createdAt,value
2017-11-10T00:02:11.894Z,10.55
2017-11-10T00:04:39.381Z,7.65
2017-11-10T00:07:06.871Z,9.25
2017-11-10T00:09:34.396Z,10.52
2017-11-10T00:12:02.080Z,9.75
2017-11-10T00:14:29.714Z,9.85
2017-11-10T00:16:57.175Z,9.90
2017-11-10T00:19:24.728Z,9.55
2017-11-10T00:21:52.195Z,8.60
2017-11-10T00:24:19.794Z,8.85
2017-11-10T00:26:48.312Z,8.90
2017-11-10T00:29:16.165Z,9.70
2017-11-10T00:31:44.611Z,9.80
2017-11-10T00:34:12.232Z,9.40
2017-11-10T00:36:39.700Z,8.95
2017-11-10T00:39:07.229Z,9.48
2017-11-10T00:41:34.692Z,10.73
2017-11-10T00:44:02.176Z,9.68
2017-11-10T00:46:29.810Z,9.30
2017-11-10T00:48:57.365Z,8.75
2017-11-10T00:51:24.853Z,10.15
2017-11-10T00:53:52.340Z,9.70
2017-11-10T00:56:19.815Z,9.18
2017-11-10T00:58:47.453Z,9.82
2017-11-10T01:01:15.096Z,9.07
2017-11-10T01:03:42.666Z,8.38
2017-11-10T01:06:10.153Z,9.68
2017-11-10T01:08:38.401Z,9.57
2017-11-10T01:11:05.887Z,9.88
2017-11-10T01:13:39.971Z,8.60
2017-11-10T01:16:07.484Z,8.73
2017-11-10T01:18:35.235Z,9.57
2017-11-10T01:21:02.775Z,7.65
2017-11-10T01:23:30.260Z,10.77
2017-11-10T01:25:57.759Z,9.00
2017-11-10T01:28:25.249Z,9.30
2017-11-10T01:30:53.602Z,9.32
2017-11-10T01:33:21.318Z,9.18
2017-11-10T01:35:49.027Z,9.25
2017-11-10T01:38:16.624Z,11.15
2017-11-10T01:40:44.121Z,10.25
2017-11-10T01:43:11.619Z,8.93
2017-11-10T01:45:39.868Z,10.93
2017-11-10T01:48:08.218Z,9.23
2017-11-10T01:50:35.766Z,8.65
2017-11-10T01:53:03.316Z,8.70
2017-11-10T01:55:30.820Z,13.00
2017-11-10T01:57:58.331Z,8.13
2017-11-10T02:00:25.815Z,8.43
2017-11-10T02:02:53.302Z,8.90
2017-11-10T02:05:21.552Z,8.23
2017-11-10T02:07:49.051Z,8.73
2017-11-10T02:10:17.500Z,9.57
2017-11-10T02:12:45.488Z,9.30
2017-11-10T02:15:13.001Z,10.07
2017-11-10T02:17:40.468Z,8.93
2017-11-10T02:20:07.972Z,11.10
2017-11-10T02:22:36.220Z,8.90
2017-11-10T02:25:03.821Z,9.13
2017-11-10T02:27:32.435Z,7.80
2017-11-10T02:30:00.174Z,7.85
2017-11-10T02:32:27.804Z,9.27
2017-11-10T02:34:56.164Z,8.52
2017-11-10T02:37:23.658Z,10.90
2017-11-10T02:39:51.144Z,8.30
2017-11-10T02:42:18.633Z,8.60
2017-11-10T02:44:46.243Z,7.90
2017-11-10T02:47:13.762Z,10.40
2017-11-10T02:49:42.169Z,9.98
2017-11-10T02:52:09.642Z,9.57
2017-11-10T02:54:37.141Z,9.20
2017-11-10T02:57:04.631Z,8.88
2017-11-10T02:59:32.884Z,8.70
2017-11-10T03:02:01.145Z,9.30
2017-11-10T03:04:28.650Z,9.80
2017-11-10T03:06:56.194Z,9.40
2017-11-10T03:09:23.714Z,9.15
2017-11-10T03:11:51.175Z,8.75
2017-11-10T03:14:18.668Z,7.25
2017-11-10T03:16:46.908Z,8.63
2017-11-10T03:19:14.508Z,7.60
2017-11-10T03:21:42.264Z,9.45
2017-11-10T03:24:09.995Z,8.63
2017-11-10T03:26:38.353Z,9.02
2017-11-10T03:29:05.836Z,9.10
2017-11-10T03:31:33.319Z,9.77
2017-11-10T03:34:00.798Z,8.30
2017-11-10T03:36:28.362Z,10.63
2017-11-10T03:38:55.823Z,12.10
2017-11-10T03:41:23.393Z,8.95
2017-11-10T03:43:50.941Z,8.18
2017-11-10T03:46:18.423Z,9.65
2017-11-10T03:48:45.900Z,7.95
2017-11-10T03:51:14.160Z,10.13
2017-11-10T03:53:42.409Z,9.20
2017-11-10T03:56:09.927Z,10.25
2017-11-10T03:58:38.199Z,11.00
2017-11-10T04:01:06.540Z,10.10
2017-11-10T04:03:34.103Z,10.82
2017-11-10T04:06:01.611Z,9.70
2017-11-10T04:08:29.860Z,10.45
2017-11-10T04:10:58.111Z,10.10
2017-11-10T04:13:25.608Z,10.67
2017-11-10T04:15:53.103Z,10.75
2017-11-10T04:18:20.624Z,9.63
2017-11-10T04:20:48.287Z,8.93
2017-11-10T04:23:15.885Z,9.40
2017-11-10T04:25:44.192Z,9.98
2017-11-10T04:28:11.672Z,9.60
2017-11-10T04:30:39.927Z,9.17
2017-11-10T04:33:07.433Z,10.60
2017-11-10T04:35:34.927Z,13.80
2017-11-10T04:38:02.524Z,9.60
2017-11-10T04:40:30.848Z,9.43
2017-11-10T04:42:58.322Z,9.07
2017-11-10T04:45:25.801Z,9.40
2017-11-10T04:47:54.059Z,8.95
2017-11-10T04:50:21.556Z,10.00
2017-11-10T04:52:49.073Z,11.20
2017-11-10T04:55:16.624Z,9.93
2017-11-10T04:57:44.096Z,9.15
2017-11-10T05:00:11.653Z,11.93
2017-11-10T05:02:39.127Z,9.25
2017-11-10T05:05:07.395Z,9.80
2017-11-10T05:07:35.660Z,10.25
2017-11-10T05:10:03.487Z,11.88
2017-11-10T05:12:32.122Z,10.75
2017-11-10T05:14:59.756Z,9.80
2017-11-10T05:17:27.218Z,8.70
2017-11-10T05:19:54.708Z,11.12
2017-11-10T05:22:22.988Z,10.73
2017-11-10T05:24:50.486Z,11.70
2017-11-10T05:27:18.016Z,11.13
2017-11-10T05:29:45.767Z,10.18
2017-11-10T05:32:13.322Z,9.50
2017-11-10T05:34:41.614Z,10.57
2017-11-10T05:37:09.078Z,10.02
2017-11-10T05:39:36.564Z,12.23
2017-11-10T05:42:04.055Z,11.60
2017-11-10T05:44:32.303Z,12.33
2017-11-10T05:46:59.962Z,11.90
2017-11-10T05:49:27.502Z,11.70
2017-11-10T05:51:55.541Z,8.80
2017-11-10T05:54:23.788Z,10.43
2017-11-10T05:56:52.033Z,9.25
2017-11-10T05:59:19.525Z,11.48
2017-11-10T06:01:47.008Z,7.83
2017-11-10T06:04:14.604Z,9.60
2017-11-10T06:06:43.215Z,8.17
2017-11-10T06:09:10.850Z,9.57
2017-11-10T06:11:39.350Z,10.85
2017-11-10T06:14:06.911Z,9.40
2017-11-10T06:16:34.380Z,8.80
2017-11-10T06:19:02.633Z,11.15
2017-11-10T06:21:30.131Z,10.00
2017-11-10T06:23:58.389Z,12.13
2017-11-10T06:26:26.644Z,12.05
2017-11-10T06:28:54.174Z,9.97
2017-11-10T06:31:21.765Z,8.33
2017-11-10T06:33:49.238Z,9.80
2017-11-10T06:36:17.489Z,9.27
2017-11-10T06:38:44.976Z,10.60
2017-11-10T06:41:13.219Z,8.03
2017-11-10T06:43:40.696Z,8.52
2017-11-10T06:46:08.372Z,10.37
2017-11-10T06:48:36.699Z,9.52
2017-11-10T06:51:04.295Z,8.15
2017-11-10T06:53:31.760Z,8.32
2017-11-10T06:56:00.017Z,9.10
2017-11-10T06:58:27.504Z,8.85
2017-11-10T07:00:55.747Z,8.27
2017-11-10T07:03:23.381Z,10.35
2017-11-10T07:05:51.036Z,7.93
2017-11-10T07:08:19.919Z,10.68
2017-11-10T07:10:47.650Z,10.15
2017-11-10T07:13:16.166Z,8.30
2017-11-10T07:15:43.757Z,8.63
2017-11-10T07:18:11.296Z,7.40
2017-11-10T07:20:38.797Z,8.80
2017-11-10T07:23:07.044Z,8.13
2017-11-10T07:25:34.530Z,8.98
2017-11-10T07:28:02.952Z,7.77
2017-11-10T07:30:30.516Z,8.10
2017-11-10T07:32:58.088Z,7.72
2017-11-10T07:35:25.573Z,6.40
2017-11-10T07:37:53.063Z,6.22
2017-11-10T07:40:20.540Z,8.27
2017-11-10T07:42:48.044Z,6.15
2017-11-10T07:45:15.688Z,6.30
2017-11-10T07:47:43.212Z,6.77
2017-11-10T07:50:10.704Z,6.20
2017-11-10T07:52:38.184Z,5.93
2017-11-10T07:55:06.429Z,5.60
2017-11-10T07:57:33.928Z,5.73
2017-11-10T08:00:02.205Z,5.62
2017-11-10T08:02:30.612Z,6.72
2017-11-10T08:04:58.856Z,5.23
2017-11-10T08:07:27.571Z,5.57
2017-11-10T08:09:55.258Z,6.47
2017-11-10T08:12:22.749Z,6.00
2017-11-10T08:14:50.236Z,6.30
2017-11-10T08:17:17.712Z,8.13
2017-11-10T08:19:45.226Z,4.30
2017-11-10T08:22:13.532Z,4.57
2017-11-10T08:24:41.063Z,4.65
2017-11-10T08:27:09.405Z,4.97
2017-11-10T08:29:36.935Z,5.40
2017-11-10T08:32:04.425Z,5.15
2017-11-10T08:34:31.912Z,6.87
2017-11-10T08:36:59.391Z,5.27
2017-11-10T08:39:26.915Z,4.70
2017-11-10T08:41:54.493Z,5.37
2017-11-10T08:44:22.000Z,4.95
2017-11-10T08:46:49.481Z,5.97
2017-11-10T08:49:16.975Z,6.32
2017-11-10T08:51:45.233Z,6.10
2017-11-10T08:54:13.556Z,5.62
2017-11-10T08:56:41.199Z,5.05
2017-11-10T08:59:08.921Z,5.40
2017-11-10T09:01:36.438Z,5.20
2017-11-10T09:04:03.932Z,5.40
2017-11-10T09:06:31.416Z,4.20
2017-11-10T09:09:00.760Z,6.22
2017-11-10T09:11:28.228Z,5.53
2017-11-10T09:13:55.712Z,5.17
2017-11-10T09:16:23.291Z,5.27
2017-11-10T09:18:51.632Z,5.20
2017-11-10T09:21:19.162Z,5.25
2017-11-10T09:23:46.653Z,4.50
2017-11-10T09:26:14.142Z,4.80
2017-11-10T09:28:45.317Z,4.75
2017-11-10T09:31:18.318Z,5.03
2017-11-10T09:34:00.679Z,4.68
2017-11-10T09:36:33.046Z,5.10
2017-11-10T09:39:07.043Z,3.62
2017-11-10T09:41:36.825Z,5.37
2017-11-10T09:44:15.171Z,5.25
2017-11-10T09:46:49.137Z,5.50
2017-11-10T09:49:23.042Z,5.40
2017-11-10T09:52:10.293Z,5.57
2017-11-10T09:54:53.427Z,4.72
2017-11-10T09:57:27.260Z,6.10
2017-11-10T10:00:12.511Z,5.30
2017-11-10T10:16:19.301Z,3.80
2017-11-10T10:19:07.612Z,5.60
2017-11-10T10:21:54.688Z,4.87
2017-11-10T10:24:22.321Z,5.10
2017-11-10T10:26:49.826Z,5.10
2017-11-10T10:29:17.325Z,5.12
2017-11-10T10:31:44.795Z,4.70
2017-11-10T10:34:12.303Z,4.68
2017-11-10T10:36:39.912Z,4.80
2017-11-10T10:39:07.405Z,4.70
2017-11-10T10:41:34.987Z,5.57
2017-11-10T10:44:02.464Z,5.75
2017-11-10T10:46:29.951Z,4.87
2017-11-10T10:48:57.445Z,5.33
2017-11-10T10:51:25.115Z,4.37
2017-11-10T10:53:54.212Z,4.65
2017-11-10T10:56:22.593Z,4.90
2017-11-10T10:58:51.731Z,4.70
2017-11-10T11:01:19.712Z,5.05
2017-11-10T11:03:47.405Z,4.90
2017-11-10T11:06:15.012Z,4.78
2017-11-10T11:08:42.499Z,4.37
2017-11-10T11:11:09.999Z,3.87
2017-11-10T11:13:38.250Z,5.05
2017-11-10T11:16:05.729Z,4.33
2017-11-10T11:18:33.992Z,5.65
2017-11-10T11:21:01.577Z,4.90
2017-11-10T11:23:29.967Z,4.55
2017-11-10T11:25:57.450Z,4.45
2017-11-10T11:28:24.932Z,5.15
2017-11-10T11:30:52.417Z,5.47
2017-11-10T11:33:20.676Z,4.85
2017-11-10T11:35:48.196Z,4.10
2017-11-10T11:38:15.675Z,4.37
2017-11-10T11:40:43.204Z,4.03
2017-11-10T11:43:10.680Z,4.55
2017-11-10T11:45:38.174Z,3.85
2017-11-10T11:48:06.436Z,3.97
2017-11-10T11:50:34.078Z,5.25
2017-11-10T11:53:02.132Z,3.90
2017-11-10T11:55:29.922Z,3.15
2017-11-10T11:57:57.529Z,3.58
2017-11-10T12:00:25.764Z,4.35
2017-11-10T12:02:53.259Z,3.42
2017-11-10T12:05:20.753Z,3.85
2017-11-10T12:07:48.251Z,3.58
2017-11-10T12:10:16.513Z,3.03
2017-11-10T12:12:44.102Z,2.80
2017-11-10T12:15:11.640Z,3.15
2017-11-10T12:17:39.142Z,3.55
2017-11-10T12:20:06.636Z,3.00
2017-11-10T12:22:34.149Z,2.97
2017-11-10T12:25:01.692Z,2.65
2017-11-10T12:27:30.029Z,2.60
2017-11-10T12:29:57.548Z,3.10
2017-11-10T12:32:25.016Z,2.78
2017-11-10T12:34:52.495Z,3.10
2017-11-10T12:37:19.988Z,2.15
2017-11-10T12:39:48.396Z,2.78
2017-11-10T12:42:16.004Z,2.67
2017-11-10T12:44:43.996Z,2.65
2017-11-10T12:47:12.833Z,2.33
2017-11-10T12:49:40.322Z,3.33
2017-11-10T12:52:08.591Z,3.33
2017-11-10T12:54:36.067Z,2.10
2017-11-10T12:57:04.325Z,2.37
2017-11-10T12:59:31.812Z,2.75
2017-11-10T13:02:00.210Z,2.08
2017-11-10T13:04:27.856Z,2.30
2017-11-10T13:06:55.396Z,2.15
2017-11-10T13:09:22.876Z,2.30
2017-11-10T13:11:50.380Z,2.00
2017-11-10T13:14:17.867Z,2.22
2017-11-10T13:16:46.129Z,2.47
2017-11-10T13:19:13.751Z,2.03
2017-11-10T13:21:41.271Z,2.40
2017-11-10T13:24:08.803Z,2.17
2017-11-10T13:26:36.325Z,2.08
2017-11-10T13:29:03.816Z,2.20
2017-11-10T13:31:31.446Z,2.05
2017-11-10T13:33:58.977Z,1.92
2017-11-10T13:36:26.773Z,2.30
2017-11-10T13:38:54.383Z,2.30
2017-11-10T13:41:21.919Z,2.50
2017-11-10T13:43:49.404Z,2.60
2017-11-10T13:46:17.644Z,2.30
2017-11-10T13:48:45.148Z,2.12
2017-11-10T13:51:12.618Z,2.30
2017-11-10T13:53:40.156Z,2.37
2017-11-10T13:56:07.638Z,2.20
2017-11-10T13:58:35.117Z,2.30
2017-11-10T14:01:02.608Z,3.70
2017-11-10T14:03:30.862Z,2.47
2017-11-10T14:05:58.567Z,2.20
2017-11-10T14:08:26.200Z,1.92
2017-11-10T14:10:53.695Z,2.15
2017-11-10T14:13:21.172Z,3.05
2017-11-10T14:15:48.665Z,2.47
2017-11-10T14:18:16.155Z,2.92
2017-11-10T14:20:44.499Z,2.55
2017-11-10T14:23:12.244Z,2.10
2017-11-10T14:25:40.689Z,2.28
2017-11-10T14:28:08.489Z,1.92
2017-11-10T14:30:36.048Z,2.42
2017-11-10T14:33:03.528Z,3.12
2017-11-10T14:35:31.016Z,2.03
2017-11-10T14:37:58.496Z,2.25
2017-11-10T14:40:26.044Z,2.80
2017-11-10T14:42:53.640Z,2.35
2017-11-10T14:45:21.168Z,2.30
2017-11-10T14:47:48.644Z,2.67
2017-11-10T14:50:16.144Z,2.65
2017-11-10T14:52:44.788Z,2.40
2017-11-10T14:55:12.263Z,2.78
2017-11-10T14:57:39.741Z,2.90
2017-11-10T15:00:08.211Z,2.50
2017-11-10T15:02:36.156Z,1.87
2017-11-10T15:05:03.659Z,2.60
2017-11-10T15:07:31.147Z,2.85
2017-11-10T15:09:58.655Z,2.35
2017-11-10T15:12:26.903Z,2.30
2017-11-10T15:14:54.596Z,2.47
2017-11-10T15:17:23.192Z,2.58
2017-11-10T15:19:50.832Z,1.70
2017-11-10T15:22:18.543Z,2.50
2017-11-10T15:24:46.154Z,2.22
2017-11-10T15:27:13.629Z,2.30
2017-11-10T15:29:41.885Z,2.22
2017-11-10T15:32:10.131Z,2.22
2017-11-10T15:34:37.628Z,2.33
2017-11-10T15:37:05.884Z,1.70
2017-11-10T15:39:33.381Z,2.40
2017-11-10T15:42:00.903Z,1.90
2017-11-10T15:44:28.455Z,1.90
2017-11-10T15:46:55.940Z,2.17
2017-11-10T15:49:24.323Z,1.98
2017-11-10T15:51:51.819Z,1.90
2017-11-10T15:54:19.373Z,1.98
2017-11-10T15:56:47.038Z,1.98
2017-11-10T15:59:14.531Z,1.65
2017-11-10T16:01:42.003Z,1.40
2017-11-10T16:04:10.269Z,1.87
2017-11-10T16:06:38.536Z,2.30
2017-11-10T16:09:06.037Z,1.80
2017-11-10T16:11:33.600Z,1.50
2017-11-10T16:14:01.212Z,16.33
2017-11-10T16:16:30.592Z,18.92
2017-11-10T16:18:58.292Z,7.87
2017-11-10T16:21:26.763Z,5.35
2017-11-10T16:23:55.904Z,5.85
2017-11-10T16:26:23.512Z,4.75
2017-11-10T16:28:51.008Z,7.18
2017-11-10T16:31:18.512Z,2.50
2017-11-10T16:33:45.992Z,2.12
2017-11-10T16:36:14.274Z,1.65
2017-11-10T16:38:42.523Z,1.92
2017-11-10T16:41:10.315Z,11.05
2017-11-10T16:43:37.835Z,2.83
2017-11-10T16:46:06.145Z,4.18
2017-11-10T16:48:33.693Z,2.05
2017-11-10T16:51:01.179Z,4.25
2017-11-10T16:53:28.673Z,3.60
2017-11-10T16:55:56.277Z,6.85
2017-11-10T16:58:24.566Z,11.07
2017-11-10T17:00:52.864Z,8.93
2017-11-10T17:03:20.398Z,4.10
2017-11-10T17:05:48.815Z,4.60
2017-11-10T17:08:16.335Z,7.57
2017-11-10T17:10:44.584Z,2.95
2017-11-10T17:13:13.441Z,20.43
2017-11-10T17:15:42.263Z,2.75
2017-11-10T17:18:11.136Z,8.10
2017-11-10T17:20:39.959Z,4.20
2017-11-10T17:23:07.484Z,4.43
2017-11-10T17:25:36.479Z,6.62
2017-11-10T17:28:05.324Z,11.07
2017-11-10T17:30:34.188Z,19.37
2017-11-10T17:33:03.025Z,5.03
2017-11-10T17:35:31.849Z,4.25
2017-11-10T17:38:00.691Z,10.27
2017-11-10T17:40:29.555Z,16.15
2017-11-10T17:42:58.396Z,13.13
2017-11-10T17:45:27.242Z,10.10
2017-11-10T17:47:56.103Z,12.40
2017-11-10T17:50:24.936Z,32.23
2017-11-10T17:52:53.774Z,38.83
2017-11-10T17:55:22.684Z,50.30
2017-11-10T17:57:51.693Z,24.90
2017-11-10T18:00:20.655Z,16.87
2017-11-10T18:02:49.580Z,41.75
2017-11-10T18:05:17.067Z,11.03
2017-11-10T18:07:44.573Z,14.48
2017-11-10T18:10:12.836Z,10.75
2017-11-10T18:12:41.092Z,9.77
2017-11-10T18:15:08.707Z,12.37
2017-11-10T18:17:36.355Z,4.20
2017-11-10T18:20:03.904Z,8.13
2017-11-10T18:22:31.408Z,5.78
2017-11-10T18:24:58.905Z,4.55
2017-11-10T18:27:27.183Z,7.85
2017-11-10T18:29:55.444Z,2.40
2017-11-10T18:32:23.718Z,4.87
2017-11-10T18:34:51.508Z,5.93
2017-11-10T18:37:19.165Z,4.00
2017-11-10T18:39:47.491Z,4.80
2017-11-10T18:42:15.064Z,11.93
2017-11-10T18:44:42.545Z,4.85
2017-11-10T18:47:10.825Z,5.85
2017-11-10T18:49:39.092Z,4.85
2017-11-10T18:52:07.020Z,3.45
2017-11-10T18:54:34.516Z,4.97
2017-11-10T18:57:02.068Z,2.30
2017-11-10T18:59:30.373Z,2.25
2017-11-10T19:01:58.628Z,10.20
2017-11-10T19:04:26.130Z,2.73
2017-11-10T19:06:53.608Z,3.37
2017-11-10T19:09:21.103Z,2.80
2017-11-10T19:11:48.621Z,2.77
2017-11-10T19:14:16.271Z,2.75
2017-11-10T19:16:43.884Z,3.65
2017-11-10T19:21:45.225Z,3.50
2017-11-10T19:24:12.813Z,2.27
2017-11-10T19:26:41.187Z,2.33
2017-11-10T19:29:09.672Z,2.07
2017-11-10T19:31:38.011Z,3.80
2017-11-10T19:34:05.481Z,2.25
2017-11-10T19:36:33.007Z,2.65
2017-11-10T19:39:01.755Z,4.50
2017-11-10T19:41:30.056Z,4.55
2017-11-10T19:43:57.568Z,3.20
2017-11-10T19:46:25.910Z,2.58
2017-11-10T19:48:53.880Z,3.92
2017-11-10T19:51:21.746Z,3.25
2017-11-10T19:53:49.680Z,2.30
2017-11-10T19:56:17.668Z,2.90
2017-11-10T19:58:45.284Z,3.70
2017-11-10T20:01:14.403Z,3.20
2017-11-10T20:03:41.938Z,2.60
2017-11-10T20:06:09.452Z,3.45
2017-11-10T20:08:37.346Z,2.62
2017-11-10T20:11:05.593Z,3.10
2017-11-10T20:13:33.097Z,3.70
2017-11-10T20:16:00.733Z,2.53
2017-11-10T20:18:28.317Z,2.03
2017-11-10T20:20:55.943Z,5.03
2017-11-10T20:23:24.208Z,3.92
2017-11-10T20:25:51.765Z,3.12
2017-11-10T20:28:19.369Z,3.00
2017-11-10T20:30:47.784Z,3.85
2017-11-10T20:33:16.121Z,3.97
2017-11-10T20:35:44.005Z,3.53
2017-11-10T20:38:12.388Z,2.60
2017-11-10T20:40:40.892Z,4.00
2017-11-10T20:43:09.225Z,3.97
2017-11-10T20:45:36.710Z,2.45
2017-11-10T20:48:05.179Z,3.80
2017-11-10T20:50:33.463Z,3.95
2017-11-10T20:53:01.716Z,4.35
2017-11-10T20:55:29.241Z,3.78
2017-11-10T20:57:57.560Z,4.28
2017-11-10T21:00:26.261Z,2.67
2017-11-10T21:02:53.877Z,3.33
2017-11-10T21:05:21.377Z,3.58
2017-11-10T21:07:49.718Z,3.30
2017-11-10T21:10:17.244Z,4.12
2017-11-10T21:12:45.336Z,3.65
2017-11-10T21:15:12.895Z,3.85
2017-11-10T21:17:40.495Z,5.00
2017-11-10T21:20:09.407Z,3.40
2017-11-10T21:22:37.139Z,4.60
2017-11-10T21:25:05.509Z,7.40
2017-11-10T21:27:33.039Z,2.33
2017-11-10T21:30:00.547Z,4.78
2017-11-10T21:32:28.832Z,4.13
2017-11-10T21:34:56.340Z,3.95
2017-11-10T21:37:23.954Z,3.33
2017-11-10T21:39:51.799Z,2.83
2017-11-10T21:42:21.277Z,2.45
2017-11-10T21:44:49.659Z,2.33
2017-11-10T21:47:17.404Z,4.05
2017-11-10T21:49:44.946Z,4.22
2017-11-10T21:52:12.441Z,3.55
2017-11-10T21:54:39.978Z,4.05
2017-11-10T21:57:07.485Z,2.80
2017-11-10T21:59:35.760Z,2.92
2017-11-10T22:02:04.547Z,3.50
2017-11-10T22:04:32.905Z,4.60
2017-11-10T22:07:00.445Z,3.17
2017-11-10T22:09:27.965Z,4.57
2017-11-10T22:11:55.489Z,2.62
2017-11-10T22:14:23.784Z,3.03
2017-11-10T22:16:51.306Z,3.87
2017-11-10T22:19:18.852Z,5.62
2017-11-10T22:21:46.541Z,4.63
2017-11-10T22:24:14.099Z,2.97
2017-11-10T22:26:42.379Z,4.60
2017-11-10T22:29:10.707Z,5.22
2017-11-10T22:31:38.199Z,3.10
2017-11-10T22:34:05.709Z,3.95
2017-11-10T22:36:33.205Z,5.32
2017-11-10T22:39:01.156Z,4.75
2017-11-10T22:41:28.860Z,2.65
2017-11-10T22:43:56.441Z,3.43
2017-11-10T22:46:24.038Z,3.12
2017-11-10T22:48:51.507Z,3.62
2017-11-10T22:51:19.025Z,6.70
2017-11-10T22:53:46.556Z,4.12
2017-11-10T22:56:14.874Z,5.12
2017-11-10T22:58:42.448Z,3.30
2017-11-10T23:01:09.934Z,4.10
2017-11-10T23:03:37.423Z,3.42
2017-11-10T23:06:04.928Z,4.03
2017-11-10T23:08:33.184Z,3.45
2017-11-10T23:11:00.708Z,3.50
2017-11-10T23:13:28.261Z,4.43
2017-11-10T23:15:56.512Z,3.37
2017-11-10T23:18:24.034Z,4.47
2017-11-10T23:20:51.528Z,3.00
2017-11-10T23:23:19.002Z,4.28
2017-11-10T23:25:47.256Z,5.20
2017-11-10T23:28:15.626Z,3.05
2017-11-10T23:30:43.230Z,3.05
2017-11-10T23:33:11.005Z,4.12
2017-11-10T23:35:38.659Z,2.75
2017-11-10T23:38:06.141Z,2.95
2017-11-10T23:40:33.627Z,5.12
2017-11-10T23:43:01.120Z,4.18
2017-11-10T23:45:28.653Z,3.45
2017-11-10T23:47:56.208Z,4.28
2017-11-10T23:50:23.725Z,2.87
2017-11-10T23:52:51.195Z,4.80
2017-11-10T23:55:18.680Z,3.42
2017-11-10T23:57:46.185Z,3.15
